createdAt,value
2023-02-24T00:01:28.564Z,100.00
2023-02-24T00:03:57.422Z,100.00
2023-02-24T00:06:26.388Z,100.00
2023-02-24T00:08:53.762Z,100.00
2023-02-24T00:11:20.665Z,100.00
2023-02-24T00:13:47.621Z,100.00
2023-02-24T00:16:19.777Z,100.00
2023-02-24T00:18:46.613Z,100.00
2023-02-24T00:21:16.270Z,100.00
2023-02-24T00:23:46.471Z,100.00
2023-02-24T00:26:15.497Z,100.00
2023-02-24T00:28:43.041Z,100.00
2023-02-24T00:31:16.050Z,100.00
2023-02-24T00:33:44.920Z,100.00
2023-02-24T00:36:25.997Z,100.00
2023-02-24T00:39:11.295Z,100.00
2023-02-24T00:41:41.500Z,100.00
2023-02-24T00:44:11.196Z,100.00
2023-02-24T00:46:40.497Z,100.00
2023-02-24T00:49:12.748Z,100.00
2023-02-24T00:51:41.669Z,100.00
2023-02-24T00:54:10.369Z,100.00
2023-02-24T00:56:37.163Z,100.00
2023-02-24T00:59:04.135Z,100.00
2023-02-24T01:01:32.880Z,100.00
2023-02-24T01:04:06.281Z,100.00
2023-02-24T01:06:34.289Z,100.00
2023-02-24T01:09:01.559Z,100.00
2023-02-24T01:11:52.588Z,100.00
2023-02-24T01:14:22.917Z,100.00
2023-02-24T01:16:50.750Z,100.00
2023-02-24T01:19:22.869Z,100.00
2023-02-24T01:21:55.298Z,100.00
2023-02-24T01:24:23.886Z,100.00
2023-02-24T01:26:50.806Z,100.00
2023-02-24T01:29:17.753Z,100.00
2023-02-24T01:31:44.661Z,100.00
2023-02-24T01:34:13.070Z,100.00
2023-02-24T01:36:43.445Z,100.00
2023-02-24T01:39:12.602Z,100.00
2023-02-24T01:41:45.302Z,100.00
2023-02-24T01:44:15.833Z,100.00
2023-02-24T01:46:48.432Z,100.00
2023-02-24T01:49:21.126Z,100.00
2023-02-24T01:51:50.926Z,100.00
2023-02-24T01:54:23.241Z,100.00
2023-02-24T01:56:52.046Z,100.00
2023-02-24T01:59:21.605Z,100.00
2023-02-24T02:01:53.308Z,100.00
2023-02-24T02:04:35.421Z,100.00
2023-02-24T02:07:02.620Z,100.00
2023-02-24T02:09:29.860Z,100.00
2023-02-24T02:11:56.484Z,100.00
2023-02-24T02:14:27.184Z,100.00
2023-02-24T02:17:32.828Z,100.00
2023-02-24T02:20:15.695Z,100.00
2023-02-24T02:22:54.354Z,100.00
2023-02-24T02:25:36.087Z,100.00
2023-02-24T02:28:08.724Z,100.00
2023-02-24T02:30:57.207Z,100.00
2023-02-24T02:33:42.676Z,100.00
2023-02-24T02:36:33.053Z,100.00
2023-02-24T02:39:22.819Z,100.00
2023-02-24T02:42:01.595Z,100.00
2023-02-24T02:44:41.844Z,100.00
2023-02-24T02:47:09.045Z,100.00
2023-02-24T02:49:40.213Z,100.00
2023-02-24T02:52:13.845Z,100.00
2023-02-24T02:54:49.978Z,100.00
2023-02-24T02:57:30.008Z,100.00
2023-02-24T03:00:15.051Z,100.00
2023-02-24T03:02:46.874Z,100.00
2023-02-24T03:05:20.338Z,100.00
2023-02-24T03:07:53.540Z,100.00
2023-02-24T03:10:27.845Z,100.00
2023-02-24T03:13:06.263Z,100.00
2023-02-24T03:15:33.716Z,100.00
2023-02-24T03:18:13.645Z,100.00
2023-02-24T03:28:42.741Z,100.00
2023-02-24T03:31:49.176Z,100.00
2023-02-24T03:34:24.032Z,100.00
2023-02-24T03:36:50.796Z,100.00
2023-02-24T03:39:18.103Z,100.00
2023-02-24T03:42:01.244Z,100.00
2023-02-24T03:44:28.984Z,100.00
2023-02-24T03:46:56.128Z,100.00
2023-02-24T03:49:25.513Z,100.00
2023-02-24T03:52:00.764Z,100.00
2023-02-24T03:54:31.027Z,100.00
2023-02-24T03:57:14.326Z,100.00
2023-02-24T04:00:22.752Z,100.00
2023-02-24T04:03:09.654Z,100.00
2023-02-24T04:05:47.620Z,100.00
2023-02-24T04:08:17.317Z,100.00
2023-02-24T04:10:57.469Z,100.00
2023-02-24T04:13:49.825Z,100.00
2023-02-24T04:16:29.002Z,100.00
2023-02-24T04:19:08.267Z,100.00
2023-02-24T04:21:37.110Z,100.00
2023-02-24T04:24:11.559Z,100.00
2023-02-24T04:26:42.901Z,100.00
2023-02-24T04:29:17.656Z,100.00
2023-02-24T04:31:48.417Z,100.00
2023-02-24T04:34:20.218Z,100.00
2023-02-24T04:36:50.333Z,100.00
2023-02-24T04:39:19.165Z,100.00
2023-02-24T04:41:51.027Z,100.00
2023-02-24T04:44:19.739Z,100.00
2023-02-24T04:46:47.679Z,100.00
2023-02-24T04:49:14.273Z,100.00
2023-02-24T04:51:43.836Z,100.00
2023-02-24T04:54:17.643Z,100.00
2023-02-24T04:56:50.899Z,100.00
2023-02-24T04:59:22.379Z,100.00
2023-02-24T05:01:51.728Z,100.00
2023-02-24T05:04:18.578Z,100.00
2023-02-24T05:06:46.288Z,100.00
2023-02-24T05:09:14.932Z,100.00
2023-02-24T05:11:43.699Z,100.00
2023-02-24T05:14:16.259Z,100.00
2023-02-24T05:16:44.077Z,100.00
2023-02-24T05:19:30.922Z,100.00
2023-02-24T05:22:00.370Z,100.00
2023-02-24T05:24:29.110Z,100.00
2023-02-24T05:27:00.209Z,100.00
2023-02-24T05:29:35.742Z,100.00
2023-02-24T05:32:04.497Z,100.00
2023-02-24T05:34:33.204Z,100.00
2023-02-24T05:37:01.884Z,100.00
2023-02-24T05:39:28.768Z,100.00
2023-02-24T05:41:57.542Z,100.00
2023-02-24T05:44:26.471Z,100.00
2023-02-24T05:46:58.826Z,100.00
2023-02-24T05:49:34.042Z,100.00
2023-02-24T05:52:10.249Z,100.00
2023-02-24T05:54:39.699Z,100.00
2023-02-24T05:57:08.997Z,100.00
2023-02-24T05:59:36.134Z,100.00
2023-02-24T06:02:07.402Z,100.00
2023-02-24T06:04:46.595Z,100.00
2023-02-24T06:07:19.336Z,100.00
2023-02-24T06:09:50.168Z,100.00
2023-02-24T06:12:18.264Z,100.00
2023-02-24T06:14:48.066Z,100.00
2023-02-24T06:17:18.682Z,100.00
2023-02-24T06:19:46.999Z,100.00
2023-02-24T06:22:15.417Z,100.00
2023-02-24T06:24:44.481Z,100.00
2023-02-24T06:27:17.681Z,100.00
2023-02-24T06:29:52.433Z,100.00
2023-02-24T06:32:21.771Z,100.00
2023-02-24T06:34:48.339Z,100.00
2023-02-24T06:37:16.343Z,100.00
2023-02-24T06:39:43.469Z,100.00
2023-02-24T06:42:11.971Z,100.00
2023-02-24T06:44:40.721Z,100.00
2023-02-24T06:47:10.739Z,100.00
2023-02-24T06:49:37.625Z,100.00
2023-02-24T06:52:05.957Z,100.00
2023-02-24T06:54:36.014Z,100.00
2023-02-24T06:57:04.523Z,100.00
2023-02-24T06:59:32.301Z,100.00
2023-02-24T07:02:01.982Z,100.00
2023-02-24T07:04:29.247Z,100.00
2023-02-24T07:07:03.660Z,100.00
2023-02-24T07:09:31.140Z,100.00
2023-02-24T07:11:58.803Z,100.00
2023-02-24T07:14:27.769Z,100.00
2023-02-24T07:16:55.122Z,100.00
2023-02-24T07:19:25.729Z,100.00
2023-02-24T07:22:00.028Z,100.00
2023-02-24T07:24:36.629Z,100.00
2023-02-24T07:27:09.451Z,100.00
2023-02-24T07:29:37.941Z,100.00
2023-02-24T07:32:08.759Z,100.00
2023-02-24T07:34:40.277Z,100.00
2023-02-24T07:37:08.700Z,100.00
2023-02-24T07:39:39.649Z,100.00
2023-02-24T07:42:08.284Z,100.00
2023-02-24T07:44:34.950Z,100.00
2023-02-24T07:47:07.836Z,100.00
2023-02-24T07:49:35.134Z,100.00
2023-02-24T07:52:02.046Z,100.00
2023-02-24T07:54:30.346Z,100.00
2023-02-24T07:56:59.288Z,100.00
2023-02-24T07:59:27.833Z,100.00
2023-02-24T08:01:55.943Z,99.58
2023-02-24T08:04:28.658Z,98.05
2023-02-24T08:06:56.192Z,98.20
2023-02-24T08:09:46.572Z,99.25
2023-02-24T08:12:21.601Z,97.54
2023-02-24T08:14:53.489Z,96.10
2023-02-24T08:17:26.456Z,98.40
2023-02-24T08:20:21.525Z,97.64
2023-02-24T08:22:53.652Z,98.27
2023-02-24T08:25:35.979Z,96.04
2023-02-24T08:28:09.167Z,96.17
2023-02-24T08:30:39.399Z,95.59
2023-02-24T08:33:09.334Z,95.01
2023-02-24T08:35:38.334Z,95.28
2023-02-24T08:38:16.344Z,93.50
2023-02-24T08:40:55.010Z,93.39
2023-02-24T08:43:33.015Z,94.73
2023-02-24T08:46:13.998Z,92.76
2023-02-24T08:48:46.547Z,92.91
2023-02-24T08:51:23.201Z,91.52
2023-02-24T08:53:55.760Z,92.83
2023-02-24T08:56:29.456Z,93.52
2023-02-24T08:59:05.248Z,93.75
2023-02-24T09:01:38.533Z,95.00
2023-02-24T09:04:09.646Z,95.31
2023-02-24T09:06:44.978Z,94.42
2023-02-24T09:09:17.738Z,94.47
2023-02-24T09:11:46.876Z,93.32
2023-02-24T09:14:27.002Z,93.23
2023-02-24T09:17:06.627Z,92.10
2023-02-24T09:19:51.636Z,89.58
2023-02-24T09:22:32.362Z,90.55
2023-02-24T09:25:24.240Z,91.09
2023-02-24T09:28:18.499Z,89.40
2023-02-24T09:30:55.902Z,89.14
2023-02-24T09:33:39.289Z,88.14
2023-02-24T09:36:12.928Z,86.76
2023-02-24T09:39:00.292Z,84.84
2023-02-24T09:42:18.378Z,85.26
2023-02-24T09:44:52.878Z,82.67
2023-02-24T09:47:40.141Z,84.41
2023-02-24T09:50:51.280Z,82.31
2023-02-24T09:53:20.884Z,82.73
2023-02-24T09:56:03.990Z,83.77
2023-02-24T09:58:49.316Z,83.93
2023-02-24T10:01:31.222Z,82.96
2023-02-24T10:04:18.529Z,82.57
2023-02-24T10:07:03.095Z,82.75
2023-02-24T10:09:44.097Z,82.12
2023-02-24T10:12:17.346Z,80.78
2023-02-24T10:14:53.846Z,81.29
2023-02-24T10:17:23.754Z,80.58
2023-02-24T10:19:59.923Z,79.29
2023-02-24T10:22:55.252Z,79.99
2023-02-24T10:25:43.077Z,79.52
2023-02-24T10:28:23.153Z,79.02
2023-02-24T10:30:49.840Z,79.74
2023-02-24T10:33:28.086Z,79.52
2023-02-24T10:36:11.009Z,79.90
2023-02-24T10:38:41.021Z,78.24
2023-02-24T10:41:10.220Z,81.10
2023-02-24T10:43:45.646Z,80.21
2023-02-24T10:46:42.089Z,78.51
2023-02-24T10:49:16.496Z,80.49
2023-02-24T10:51:51.425Z,77.68
2023-02-24T10:54:33.158Z,77.33
2023-02-24T10:57:18.895Z,77.41
2023-02-24T11:00:16.661Z,76.61
2023-02-24T11:03:10.081Z,78.27
2023-02-24T11:05:56.687Z,77.38
2023-02-24T11:08:36.901Z,74.70
2023-02-24T11:11:29.830Z,77.15
2023-02-24T11:14:18.345Z,76.16
2023-02-24T11:17:09.992Z,76.38
2023-02-24T11:19:47.882Z,76.64
2023-02-24T11:22:20.360Z,75.83
2023-02-24T11:24:48.192Z,76.13
2023-02-24T11:27:18.542Z,77.37
2023-02-24T11:30:25.654Z,76.43
2023-02-24T11:33:13.681Z,75.55
2023-02-24T11:36:20.595Z,76.70
2023-02-24T11:39:22.710Z,76.34
2023-02-24T11:41:58.517Z,75.55
2023-02-24T11:44:39.686Z,75.32
2023-02-24T11:47:13.263Z,75.24
2023-02-24T11:49:45.411Z,73.00
2023-02-24T11:52:18.012Z,70.55
2023-02-24T11:54:50.624Z,70.70
2023-02-24T11:57:22.969Z,69.97
2023-02-24T12:00:01.679Z,71.45
2023-02-24T12:02:47.174Z,70.42
2023-02-24T12:05:18.787Z,69.28
2023-02-24T12:07:54.680Z,69.88
2023-02-24T12:10:45.089Z,69.16
2023-02-24T12:13:11.905Z,67.42
2023-02-24T12:15:48.792Z,66.95
2023-02-24T12:18:24.596Z,67.99
2023-02-24T12:20:57.146Z,67.95
2023-02-24T12:23:37.549Z,68.60
2023-02-24T12:26:28.970Z,70.03
2023-02-24T12:29:32.758Z,70.10
2023-02-24T12:32:16.055Z,67.31
2023-02-24T12:35:10.381Z,70.14
2023-02-24T12:37:47.327Z,68.76
2023-02-24T12:40:13.934Z,66.82
2023-02-24T12:42:48.670Z,65.31
2023-02-24T12:45:53.717Z,67.25
2023-02-24T12:48:46.327Z,66.76
2023-02-24T12:51:50.593Z,69.48
2023-02-24T12:54:27.904Z,68.06
2023-02-24T12:57:29.988Z,67.59
2023-02-24T13:00:02.586Z,68.82
2023-02-24T13:02:53.892Z,69.19
2023-02-24T13:05:44.776Z,71.12
2023-02-24T13:08:28.728Z,72.57
2023-02-24T13:11:05.349Z,72.56
2023-02-24T13:13:46.474Z,74.45
2023-02-24T13:16:13.334Z,76.51
2023-02-24T13:18:40.339Z,78.10
2023-02-24T13:21:14.854Z,78.22
2023-02-24T13:23:51.771Z,78.07
2023-02-24T13:26:24.251Z,79.70
2023-02-24T13:29:17.337Z,80.31
2023-02-24T13:31:52.346Z,82.93
2023-02-24T13:34:22.046Z,83.69
2023-02-24T13:36:50.654Z,86.15
2023-02-24T13:39:27.229Z,87.47
2023-02-24T13:42:30.094Z,88.28
2023-02-24T13:44:59.777Z,89.30
2023-02-24T13:48:00.237Z,91.88
2023-02-24T13:51:06.337Z,92.48
2023-02-24T13:53:32.898Z,93.46
2023-02-24T13:56:21.390Z,95.07
2023-02-24T13:59:17.110Z,96.47
2023-02-24T14:02:00.722Z,95.78
2023-02-24T14:04:32.865Z,96.77
2023-02-24T14:07:03.392Z,97.12
2023-02-24T14:09:56.773Z,97.54
2023-02-24T14:12:35.389Z,98.50
2023-02-24T14:15:04.293Z,98.23
2023-02-24T14:17:36.998Z,99.53
2023-02-24T14:20:09.808Z,100.00
2023-02-24T14:22:54.061Z,100.00
2023-02-24T14:25:23.399Z,100.00
2023-02-24T14:27:51.441Z,100.00
2023-02-24T14:30:45.288Z,100.00
2023-02-24T14:33:33.865Z,100.00
2023-02-24T14:36:02.004Z,100.00
2023-02-24T14:38:36.813Z,100.00
2023-02-24T14:41:07.415Z,100.00
2023-02-24T14:43:41.924Z,100.00
2023-02-24T14:46:09.084Z,100.00
2023-02-24T14:48:36.398Z,100.00
2023-02-24T14:51:10.806Z,100.00
2023-02-24T14:53:50.694Z,100.00
2023-02-24T14:56:19.626Z,100.00
2023-02-24T14:58:52.291Z,100.00
2023-02-24T15:01:34.029Z,100.00
2023-02-24T15:04:12.215Z,100.00
2023-02-24T15:06:43.024Z,100.00
2023-02-24T15:09:21.137Z,100.00
2023-02-24T15:11:49.400Z,100.00
2023-02-24T15:14:24.737Z,100.00
2023-02-24T15:16:55.066Z,100.00
2023-02-24T15:19:31.884Z,100.00
2023-02-24T15:21:58.672Z,100.00
2023-02-24T15:24:27.216Z,100.00
2023-02-24T15:27:02.629Z,100.00
2023-02-24T15:29:31.319Z,100.00
2023-02-24T15:32:00.373Z,100.00
2023-02-24T15:34:34.972Z,100.00
2023-02-24T15:37:12.634Z,100.00
2023-02-24T15:39:42.779Z,100.00
2023-02-24T15:42:17.133Z,100.00
2023-02-24T15:44:58.416Z,100.00
2023-02-24T15:47:28.832Z,100.00
2023-02-24T15:49:55.662Z,100.00
2023-02-24T15:52:25.776Z,100.00
2023-02-24T15:54:52.889Z,100.00
2023-02-24T15:57:20.627Z,100.00
2023-02-24T15:59:47.365Z,100.00
2023-02-24T16:02:18.334Z,100.00
2023-02-24T16:04:45.052Z,100.00
2023-02-24T16:07:17.797Z,100.00
2023-02-24T16:09:45.906Z,100.00
2023-02-24T16:12:17.200Z,100.00
2023-02-24T16:14:46.772Z,100.00
2023-02-24T16:17:30.821Z,100.00
2023-02-24T16:19:57.816Z,100.00
2023-02-24T16:22:25.187Z,100.00
2023-02-24T16:24:52.560Z,100.00
2023-02-24T16:27:29.585Z,100.00
2023-02-24T16:29:58.090Z,100.00
2023-02-24T16:32:27.142Z,100.00
2023-02-24T16:34:54.147Z,100.00
2023-02-24T16:37:27.406Z,100.00
2023-02-24T16:39:54.865Z,100.00
2023-02-24T16:42:22.073Z,100.00
2023-02-24T16:44:49.521Z,100.00
2023-02-24T16:47:25.566Z,100.00
2023-02-24T16:49:56.292Z,100.00
2023-02-24T16:52:24.828Z,100.00
2023-02-24T16:54:51.600Z,100.00
2023-02-24T16:57:18.265Z,100.00
2023-02-24T16:59:44.956Z,100.00
2023-02-24T17:02:22.505Z,100.00
2023-02-24T17:04:49.193Z,100.00
2023-02-24T17:07:16.280Z,100.00
2023-02-24T17:09:43.091Z,100.00
2023-02-24T17:12:13.026Z,100.00
2023-02-24T17:14:39.794Z,100.00
2023-02-24T17:17:06.649Z,100.00
2023-02-24T17:19:33.433Z,100.00
2023-02-24T17:22:00.117Z,100.00
2023-02-24T17:24:28.551Z,100.00
2023-02-24T17:26:58.763Z,100.00
2023-02-24T17:29:25.566Z,100.00
2023-02-24T17:31:52.465Z,100.00
2023-02-24T17:34:21.496Z,100.00
2023-02-24T17:36:48.332Z,100.00
2023-02-24T17:39:15.073Z,100.00
2023-02-24T17:41:41.804Z,100.00
2023-02-24T17:44:08.426Z,100.00
2023-02-24T17:46:35.151Z,100.00
2023-02-24T17:49:05.050Z,100.00
2023-02-24T17:51:32.071Z,100.00
2023-02-24T17:53:58.837Z,100.00
2023-02-24T17:56:25.582Z,100.00
2023-02-24T17:58:55.462Z,100.00
2023-02-24T18:01:22.244Z,100.00
2023-02-24T18:03:48.908Z,100.00
2023-02-24T18:06:15.713Z,100.00
2023-02-24T18:08:42.425Z,100.00
2023-02-24T18:11:14.560Z,100.00
2023-02-24T18:13:41.260Z,100.00
2023-02-24T18:16:10.476Z,100.00
2023-02-24T18:18:37.602Z,100.00
2023-02-24T18:21:05.453Z,100.00
2023-02-24T18:23:33.360Z,100.00
2023-02-24T18:26:05.367Z,100.00
2023-02-24T18:28:33.015Z,100.00
2023-02-24T18:31:03.456Z,100.00
2023-02-24T18:33:30.492Z,100.00
2023-02-24T18:36:00.942Z,100.00
2023-02-24T18:38:28.662Z,100.00
2023-02-24T18:41:03.334Z,100.00
2023-02-24T18:43:31.203Z,100.00
2023-02-24T18:46:02.697Z,100.00
2023-02-24T18:48:33.967Z,100.00
2023-02-24T18:51:01.301Z,100.00
2023-02-24T18:53:30.967Z,100.00
2023-02-24T18:56:02.728Z,100.00
2023-02-24T18:58:29.973Z,100.00
2023-02-24T19:00:57.105Z,100.00
2023-02-24T19:03:24.355Z,100.00
2023-02-24T19:05:51.061Z,100.00
2023-02-24T19:08:18.060Z,100.00
2023-02-24T19:10:45.021Z,100.00
2023-02-24T19:13:12.077Z,100.00
2023-02-24T19:15:39.448Z,100.00
2023-02-24T19:18:06.431Z,100.00
2023-02-24T19:20:33.204Z,100.00
2023-02-24T19:23:01.393Z,100.00
2023-02-24T19:25:28.117Z,100.00
2023-02-24T19:27:54.819Z,100.00
2023-02-24T19:30:21.565Z,100.00
2023-02-24T19:32:49.611Z,100.00
2023-02-24T19:35:16.656Z,100.00
2023-02-24T19:37:43.528Z,100.00
2023-02-24T19:40:11.095Z,100.00
2023-02-24T19:42:37.742Z,100.00
2023-02-24T19:45:04.835Z,100.00
2023-02-24T19:47:31.465Z,100.00
2023-02-24T19:49:58.234Z,100.00
2023-02-24T19:52:25.055Z,100.00
2023-02-24T19:54:51.830Z,100.00
2023-02-24T19:57:18.488Z,100.00
2023-02-24T19:59:45.139Z,100.00
2023-02-24T20:02:11.919Z,100.00
2023-02-24T20:04:41.586Z,100.00
2023-02-24T20:07:08.316Z,100.00
2023-02-24T20:09:34.905Z,100.00
2023-02-24T20:12:02.376Z,100.00
2023-02-24T20:14:29.877Z,100.00
2023-02-24T20:16:56.625Z,100.00
2023-02-24T20:19:23.418Z,100.00
2023-02-24T20:21:50.249Z,100.00
2023-02-24T20:24:18.384Z,100.00
2023-02-24T20:26:47.763Z,100.00
2023-02-24T20:29:14.583Z,100.00
2023-02-24T20:31:41.621Z,100.00
2023-02-24T20:34:10.529Z,100.00
2023-02-24T20:36:37.482Z,100.00
2023-02-24T20:39:06.685Z,100.00
2023-02-24T20:41:34.117Z,100.00
2023-02-24T20:44:00.752Z,100.00
2023-02-24T20:46:32.347Z,100.00
2023-02-24T20:49:02.220Z,100.00
2023-02-24T20:51:30.509Z,100.00
2023-02-24T20:53:58.587Z,100.00
2023-02-24T20:56:33.063Z,100.00
2023-02-24T20:59:06.127Z,100.00
2023-02-24T21:01:34.052Z,100.00
2023-02-24T21:04:01.302Z,100.00
2023-02-24T21:06:28.793Z,100.00
2023-02-24T21:08:56.609Z,100.00
2023-02-24T21:11:23.675Z,100.00
2023-02-24T21:13:52.372Z,100.00
2023-02-24T21:16:20.937Z,100.00
2023-02-24T21:18:49.478Z,100.00
2023-02-24T21:21:17.424Z,100.00
2023-02-24T21:23:44.576Z,100.00
2023-02-24T21:26:12.412Z,100.00
2023-02-24T21:28:40.271Z,100.00
2023-02-24T21:31:12.212Z,100.00
2023-02-24T21:33:39.506Z,100.00
2023-02-24T21:36:12.016Z,100.00
2023-02-24T21:38:38.683Z,100.00
2023-02-24T21:41:07.762Z,100.00
2023-02-24T21:43:35.097Z,100.00
2023-02-24T21:46:09.429Z,100.00
2023-02-24T21:48:37.144Z,100.00
2023-02-24T21:51:06.332Z,100.00
2023-02-24T21:53:35.635Z,100.00
2023-02-24T21:56:16.240Z,100.00
2023-02-24T21:58:53.656Z,100.00
2023-02-24T22:01:26.955Z,100.00
2023-02-24T22:03:55.801Z,100.00
2023-02-24T22:06:23.703Z,100.00
2023-02-24T22:08:50.516Z,100.00
2023-02-24T22:11:18.646Z,100.00
2023-02-24T22:13:46.360Z,100.00
2023-02-24T22:16:23.188Z,100.00
2023-02-24T22:18:51.790Z,100.00
2023-02-24T22:21:25.482Z,100.00
2023-02-24T22:23:54.304Z,100.00
2023-02-24T22:26:23.999Z,100.00
2023-02-24T22:28:51.797Z,100.00
2023-02-24T22:31:20.998Z,100.00
2023-02-24T22:33:48.937Z,100.00
2023-02-24T22:36:19.742Z,100.00
2023-02-24T22:38:47.363Z,100.00
2023-02-24T22:41:20.040Z,100.00
2023-02-24T22:43:47.263Z,100.00
2023-02-24T22:46:16.816Z,100.00
2023-02-24T22:48:43.868Z,100.00
2023-02-24T22:51:13.757Z,100.00
2023-02-24T22:53:42.901Z,100.00
2023-02-24T22:56:12.155Z,100.00
2023-02-24T22:58:39.026Z,100.00
2023-02-24T23:01:16.072Z,100.00
2023-02-24T23:03:43.711Z,100.00
2023-02-24T23:06:16.207Z,100.00
2023-02-24T23:08:45.901Z,100.00
2023-02-24T23:11:18.871Z,100.00
2023-02-24T23:13:47.892Z,100.00
2023-02-24T23:16:18.620Z,100.00
2023-02-24T23:18:50.825Z,100.00
2023-02-24T23:21:22.644Z,100.00
2023-02-24T23:23:53.484Z,100.00
2023-02-24T23:26:20.543Z,99.96
2023-02-24T23:28:47.364Z,99.32
2023-02-24T23:31:20.059Z,100.00
2023-02-24T23:33:46.968Z,100.00
2023-02-24T23:36:13.670Z,100.00
2023-02-24T23:38:40.272Z,100.00
2023-02-24T23:41:09.253Z,100.00
2023-02-24T23:43:36.282Z,100.00
2023-02-24T23:46:04.720Z,100.00
2023-02-24T23:48:32.040Z,100.00
2023-02-24T23:50:58.812Z,100.00
2023-02-24T23:53:25.872Z,100.00
2023-02-24T23:55:53.406Z,100.00
2023-02-24T23:58:20.387Z,100.00
